createdAt,value
2018-09-26T00:00:33.328Z,5.60
2018-09-26T00:03:03.688Z,5.60
2018-09-26T00:05:31.114Z,5.60
2018-09-26T00:07:58.534Z,5.60
2018-09-26T00:10:25.950Z,5.50
2018-09-26T00:12:53.345Z,5.50
2018-09-26T00:15:20.745Z,5.50
2018-09-26T00:17:48.138Z,5.50
2018-09-26T00:20:15.545Z,5.60
2018-09-26T00:22:43.026Z,5.50
2018-09-26T00:25:10.433Z,5.50
2018-09-26T00:27:37.825Z,5.40
2018-09-26T00:30:05.234Z,5.40
2018-09-26T00:32:32.633Z,5.30
2018-09-26T00:35:00.033Z,5.30
2018-09-26T00:37:27.824Z,5.30
2018-09-26T00:39:55.217Z,5.20
2018-09-26T00:42:22.589Z,5.20
2018-09-26T00:44:49.999Z,5.30
2018-09-26T00:47:17.383Z,5.30
2018-09-26T00:49:44.821Z,5.30
2018-09-26T00:52:12.217Z,5.40
2018-09-26T00:54:39.629Z,5.30
2018-09-26T00:57:07.055Z,5.20
2018-09-26T00:59:34.461Z,5.10
2018-09-26T01:02:01.866Z,5.20
2018-09-26T01:04:29.298Z,5.20
2018-09-26T01:06:56.673Z,5.20
2018-09-26T01:09:24.060Z,5.00
2018-09-26T01:11:51.457Z,5.00
2018-09-26T01:14:18.852Z,5.00
2018-09-26T01:16:46.249Z,4.90
2018-09-26T01:19:13.649Z,4.90
2018-09-26T01:21:41.052Z,4.90
2018-09-26T01:24:08.510Z,4.80
2018-09-26T01:26:35.952Z,4.80
2018-09-26T01:29:03.334Z,4.80
2018-09-26T01:31:30.745Z,4.70
2018-09-26T01:33:58.142Z,4.70
2018-09-26T01:36:25.553Z,4.70
2018-09-26T01:38:52.948Z,4.80
2018-09-26T01:41:20.353Z,4.70
2018-09-26T01:43:47.748Z,4.70
2018-09-26T01:46:15.184Z,4.60
2018-09-26T01:48:42.597Z,4.60
2018-09-26T01:51:10.001Z,4.60
2018-09-26T01:53:37.722Z,4.60
2018-09-26T01:56:05.138Z,4.70
2018-09-26T01:58:32.517Z,4.60
2018-09-26T02:00:59.926Z,4.60
2018-09-26T02:03:27.380Z,4.60
2018-09-26T02:05:54.789Z,4.50
2018-09-26T02:08:22.217Z,4.50
2018-09-26T02:10:49.625Z,4.50
2018-09-26T02:13:17.109Z,4.40
2018-09-26T02:15:44.509Z,4.40
2018-09-26T02:18:11.918Z,4.30
2018-09-26T02:20:39.306Z,4.30
2018-09-26T02:23:06.710Z,4.20
2018-09-26T02:25:34.118Z,4.20
2018-09-26T02:28:01.518Z,4.20
2018-09-26T02:30:28.958Z,4.20
2018-09-26T02:32:56.530Z,4.20
2018-09-26T02:35:23.937Z,4.20
2018-09-26T02:37:51.342Z,4.30
2018-09-26T02:40:18.784Z,4.20
2018-09-26T02:42:46.203Z,4.10
2018-09-26T02:45:13.605Z,4.10
2018-09-26T02:47:41.005Z,4.10
2018-09-26T02:50:08.622Z,4.10
2018-09-26T02:52:36.013Z,3.90
2018-09-26T02:55:03.564Z,3.80
2018-09-26T02:57:30.965Z,3.90
2018-09-26T02:59:58.386Z,3.90
2018-09-26T03:02:25.810Z,4.00
2018-09-26T03:04:53.206Z,4.00
2018-09-26T03:07:20.594Z,4.00
2018-09-26T03:09:48.025Z,4.00
2018-09-26T03:12:15.440Z,4.00
2018-09-26T03:14:42.845Z,3.90
2018-09-26T03:17:10.241Z,3.90
2018-09-26T03:19:37.638Z,3.90
2018-09-26T03:22:05.049Z,3.90
2018-09-26T03:24:32.452Z,3.90
2018-09-26T03:26:59.858Z,3.90
2018-09-26T03:29:27.317Z,3.90
2018-09-26T03:31:54.721Z,3.90
2018-09-26T03:34:22.131Z,3.90
2018-09-26T03:36:49.538Z,3.90
2018-09-26T03:39:16.969Z,3.90
2018-09-26T03:41:44.398Z,3.90
2018-09-26T03:44:11.818Z,3.90
2018-09-26T03:46:39.206Z,3.80
2018-09-26T03:49:06.617Z,3.80
2018-09-26T03:51:33.990Z,3.80
2018-09-26T03:54:01.417Z,3.80
2018-09-26T03:56:28.824Z,3.80
2018-09-26T03:58:56.237Z,3.80
2018-09-26T04:01:23.641Z,3.70
2018-09-26T04:03:51.046Z,3.60
2018-09-26T04:06:18.449Z,3.60
2018-09-26T04:08:45.855Z,3.60
2018-09-26T04:11:13.255Z,3.60
2018-09-26T04:13:40.695Z,3.70
2018-09-26T04:16:08.113Z,3.70
2018-09-26T04:18:35.523Z,3.60
2018-09-26T04:21:02.938Z,3.60
2018-09-26T04:23:30.353Z,3.50
2018-09-26T04:25:57.742Z,3.40
2018-09-26T04:28:25.165Z,3.40
2018-09-26T04:30:52.567Z,3.40
2018-09-26T04:33:20.139Z,3.30
2018-09-26T04:35:47.410Z,3.30
2018-09-26T04:38:14.833Z,3.30
2018-09-26T04:40:42.252Z,3.40
2018-09-26T04:43:09.668Z,3.40
2018-09-26T04:45:37.072Z,3.40
2018-09-26T04:48:04.858Z,3.40
2018-09-26T04:50:32.268Z,3.40
2018-09-26T04:52:59.869Z,3.40
2018-09-26T04:55:27.301Z,3.40
2018-09-26T04:57:54.764Z,3.70
2018-09-26T05:00:22.113Z,4.00
2018-09-26T05:02:49.502Z,3.90
2018-09-26T05:05:16.896Z,3.80
2018-09-26T05:07:44.297Z,3.60
2018-09-26T05:10:11.687Z,3.60
2018-09-26T05:12:39.081Z,3.60
2018-09-26T05:15:06.478Z,3.50
2018-09-26T05:17:33.889Z,3.40
2018-09-26T05:20:01.306Z,3.40
2018-09-26T05:22:28.713Z,3.40
2018-09-26T05:24:56.145Z,3.60
2018-09-26T05:27:23.537Z,3.50
2018-09-26T05:29:50.945Z,3.30
2018-09-26T05:32:18.356Z,3.10
2018-09-26T05:34:45.751Z,3.10
2018-09-26T05:37:13.641Z,3.20
2018-09-26T05:39:41.105Z,3.20
2018-09-26T05:42:08.517Z,3.20
2018-09-26T05:44:35.912Z,3.30
2018-09-26T05:47:03.293Z,3.30
2018-09-26T05:49:30.677Z,3.30
2018-09-26T05:51:58.081Z,3.40
2018-09-26T05:54:25.482Z,3.50
2018-09-26T05:56:52.897Z,3.50
2018-09-26T05:59:20.286Z,3.60
2018-09-26T06:01:47.677Z,3.60
2018-09-26T06:04:15.083Z,3.60
2018-09-26T06:06:42.637Z,3.60
2018-09-26T06:09:12.132Z,3.60
2018-09-26T06:11:39.585Z,3.60
2018-09-26T06:14:06.990Z,3.70
2018-09-26T06:16:34.386Z,3.80
2018-09-26T06:19:01.845Z,3.90
2018-09-26T06:21:29.185Z,4.00
2018-09-26T06:23:56.582Z,4.20
2018-09-26T06:26:23.985Z,4.40
2018-09-26T06:28:51.384Z,4.30
2018-09-26T06:31:18.817Z,4.30
2018-09-26T06:33:46.213Z,4.30
2018-09-26T06:36:13.614Z,4.30
2018-09-26T06:38:41.009Z,4.30
2018-09-26T06:41:08.437Z,4.40
2018-09-26T06:43:35.834Z,4.40
2018-09-26T06:46:03.265Z,4.50
2018-09-26T06:48:30.680Z,4.50
2018-09-26T06:50:58.243Z,4.60
2018-09-26T06:53:25.625Z,4.60
2018-09-26T06:55:53.121Z,4.70
2018-09-26T06:58:20.513Z,4.80
2018-09-26T07:00:47.926Z,4.90
2018-09-26T07:03:15.318Z,5.00
2018-09-26T07:05:42.737Z,5.20
2018-09-26T07:08:10.127Z,5.30
2018-09-26T07:10:37.530Z,5.40
2018-09-26T07:13:04.913Z,5.50
2018-09-26T07:15:32.308Z,5.60
2018-09-26T07:17:59.721Z,5.70
2018-09-26T07:20:27.105Z,5.70
2018-09-26T07:22:54.505Z,5.80
2018-09-26T07:25:21.889Z,5.70
2018-09-26T07:27:49.269Z,5.80
2018-09-26T07:30:16.706Z,5.90
2018-09-26T07:32:44.102Z,6.00
2018-09-26T07:35:11.498Z,6.10
2018-09-26T07:37:38.905Z,6.20
2018-09-26T07:40:06.307Z,6.50
2018-09-26T07:42:33.733Z,6.70
2018-09-26T07:45:01.135Z,6.90
2018-09-26T07:47:28.574Z,7.10
2018-09-26T07:49:55.969Z,7.20
2018-09-26T07:52:23.401Z,7.30
2018-09-26T07:54:50.786Z,7.60
2018-09-26T07:57:18.195Z,7.70
2018-09-26T07:59:45.636Z,7.90
2018-09-26T08:02:13.124Z,8.00
2018-09-26T08:04:40.540Z,8.30
2018-09-26T08:07:07.962Z,8.50
2018-09-26T08:09:35.362Z,8.80
2018-09-26T08:12:02.782Z,8.90
2018-09-26T08:14:30.161Z,9.00
2018-09-26T08:16:57.550Z,9.20
2018-09-26T08:19:24.961Z,9.30
2018-09-26T08:21:52.398Z,9.40
2018-09-26T08:24:19.868Z,9.60
2018-09-26T08:26:47.229Z,9.80
2018-09-26T08:29:14.631Z,10.00
2018-09-26T08:31:42.050Z,10.00
2018-09-26T08:34:09.497Z,10.10
2018-09-26T08:36:36.873Z,10.30
2018-09-26T08:39:06.613Z,10.40
2018-09-26T08:41:34.042Z,10.50
2018-09-26T08:44:01.458Z,10.70
2018-09-26T08:46:28.849Z,10.90
2018-09-26T08:48:56.245Z,11.00
2018-09-26T08:51:23.646Z,11.10
2018-09-26T08:53:51.107Z,11.10
2018-09-26T08:56:18.449Z,11.10
2018-09-26T08:58:45.884Z,11.10
2018-09-26T09:01:18.798Z,11.20
2018-09-26T09:03:46.202Z,11.20
2018-09-26T09:06:13.660Z,11.30
2018-09-26T09:08:41.033Z,11.20
2018-09-26T09:11:08.456Z,11.10
2018-09-26T09:13:35.882Z,11.30
2018-09-26T09:16:03.282Z,11.20
2018-09-26T09:18:30.677Z,11.30
2018-09-26T09:20:58.089Z,11.10
2018-09-26T09:23:25.517Z,11.00
2018-09-26T09:25:52.943Z,11.20
2018-09-26T09:28:20.377Z,11.30
2018-09-26T09:30:47.794Z,11.40
2018-09-26T09:33:15.434Z,11.50
2018-09-26T09:35:42.823Z,11.70
2018-09-26T09:38:10.266Z,11.90
2018-09-26T09:40:37.647Z,11.90
2018-09-26T09:43:05.082Z,12.00
2018-09-26T09:45:32.533Z,12.20
2018-09-26T09:47:59.958Z,12.20
2018-09-26T09:50:27.402Z,12.40
2018-09-26T09:52:54.806Z,12.50
2018-09-26T09:55:22.201Z,12.30
2018-09-26T09:57:49.624Z,12.30
2018-09-26T10:00:17.012Z,12.30
2018-09-26T10:02:44.492Z,12.50
2018-09-26T10:05:11.833Z,12.70
2018-09-26T10:07:39.228Z,12.80
2018-09-26T10:10:06.682Z,12.90
2018-09-26T10:12:34.109Z,13.00
2018-09-26T10:15:01.523Z,13.00
2018-09-26T10:17:28.969Z,13.30
2018-09-26T10:19:56.389Z,13.40
2018-09-26T10:22:23.821Z,13.40
2018-09-26T10:24:51.266Z,13.60
2018-09-26T10:27:18.665Z,13.80
2018-09-26T10:29:46.072Z,13.90
2018-09-26T10:32:13.532Z,14.00
2018-09-26T10:34:40.916Z,14.10
2018-09-26T10:37:08.345Z,14.10
2018-09-26T10:39:35.765Z,14.00
2018-09-26T10:42:03.217Z,14.20
2018-09-26T10:44:30.628Z,14.20
2018-09-26T10:46:58.047Z,14.40
2018-09-26T10:49:25.624Z,14.40
2018-09-26T10:51:53.028Z,14.50
2018-09-26T10:54:20.434Z,14.80
2018-09-26T10:56:47.985Z,15.30
2018-09-26T10:59:15.248Z,15.90
2018-09-26T11:01:42.647Z,16.60
2018-09-26T11:04:10.066Z,17.40
2018-09-26T11:06:37.461Z,18.10
2018-09-26T11:09:05.890Z,18.50
2018-09-26T11:11:33.301Z,18.80
2018-09-26T11:14:00.705Z,19.00
2018-09-26T11:16:28.199Z,19.40
2018-09-26T11:18:55.628Z,19.80
2018-09-26T11:21:23.015Z,20.20
2018-09-26T11:23:50.386Z,20.30
2018-09-26T11:26:17.861Z,20.80
2018-09-26T11:28:45.191Z,21.30
2018-09-26T11:31:12.617Z,21.30
2018-09-26T11:33:40.071Z,21.20
2018-09-26T11:36:07.442Z,21.80
2018-09-26T11:38:34.841Z,22.10
2018-09-26T11:41:02.279Z,22.20
2018-09-26T11:43:29.717Z,22.20
2018-09-26T11:45:57.141Z,22.90
2018-09-26T11:48:24.569Z,23.20
2018-09-26T11:50:51.983Z,23.10
2018-09-26T11:53:19.373Z,23.20
2018-09-26T11:55:46.806Z,23.20
2018-09-26T11:58:14.245Z,23.60
2018-09-26T12:00:41.717Z,23.70
2018-09-26T12:03:09.105Z,23.70
2018-09-26T12:05:36.518Z,23.60
2018-09-26T12:08:03.929Z,23.70
2018-09-26T12:10:31.329Z,24.00
2018-09-26T12:12:58.737Z,24.20
2018-09-26T12:15:26.145Z,24.40
2018-09-26T12:17:53.553Z,24.60
2018-09-26T12:20:20.949Z,24.70
2018-09-26T12:22:48.356Z,24.40
2018-09-26T12:25:15.773Z,24.40
2018-09-26T12:27:43.158Z,24.70
2018-09-26T12:30:10.556Z,24.90
2018-09-26T12:32:38.349Z,24.40
2018-09-26T12:35:05.779Z,24.00
2018-09-26T12:37:33.174Z,24.00
2018-09-26T12:40:00.609Z,24.70
2018-09-26T12:42:28.017Z,25.20
2018-09-26T12:44:55.468Z,25.60
2018-09-26T12:47:23.510Z,25.60
2018-09-26T12:49:50.801Z,26.10
2018-09-26T12:52:18.258Z,25.20
2018-09-26T12:54:45.600Z,25.60
2018-09-26T12:57:13.001Z,25.40
2018-09-26T12:59:40.428Z,25.70
2018-09-26T13:02:07.853Z,25.70
2018-09-26T13:04:35.291Z,25.60
2018-09-26T13:07:02.686Z,25.10
2018-09-26T13:09:30.095Z,25.10
2018-09-26T13:11:57.498Z,24.60
2018-09-26T13:14:24.967Z,24.90
2018-09-26T13:16:52.301Z,25.30
2018-09-26T13:19:19.725Z,24.90
2018-09-26T13:21:47.121Z,24.70
2018-09-26T13:24:14.578Z,23.80
2018-09-26T13:26:41.937Z,24.50
2018-09-26T13:29:09.324Z,24.80
2018-09-26T13:31:36.736Z,25.50
2018-09-26T13:34:04.203Z,25.80
2018-09-26T13:36:31.525Z,25.50
2018-09-26T13:38:58.976Z,25.50
2018-09-26T13:41:26.330Z,25.70
2018-09-26T13:43:53.746Z,26.10
2018-09-26T13:46:21.293Z,25.70
2018-09-26T13:48:48.582Z,24.90
2018-09-26T13:51:15.972Z,24.60
2018-09-26T13:53:43.379Z,24.20
2018-09-26T13:56:10.795Z,24.30
2018-09-26T13:58:38.189Z,24.20
2018-09-26T14:01:05.795Z,24.00
2018-09-26T14:03:33.193Z,24.20
2018-09-26T14:06:00.617Z,23.90
2018-09-26T14:08:28.109Z,23.50
2018-09-26T14:10:55.453Z,23.70
2018-09-26T14:13:22.841Z,23.60
2018-09-26T14:15:50.249Z,23.80
2018-09-26T14:18:17.676Z,23.60
2018-09-26T14:20:57.411Z,23.30
2018-09-26T14:23:24.888Z,23.00
2018-09-26T14:25:52.274Z,23.00
2018-09-26T14:28:19.769Z,23.00
2018-09-26T14:30:47.335Z,23.10
2018-09-26T14:33:14.680Z,23.20
2018-09-26T14:35:42.085Z,23.10
2018-09-26T14:38:09.596Z,22.80
2018-09-26T14:40:36.965Z,22.20
2018-09-26T14:43:04.414Z,21.50
2018-09-26T14:45:31.878Z,21.20
2018-09-26T14:47:59.302Z,21.20
2018-09-26T14:50:26.901Z,21.30
2018-09-26T14:52:54.240Z,21.30
2018-09-26T14:55:21.722Z,21.30
2018-09-26T14:57:49.083Z,21.00
2018-09-26T15:00:16.513Z,20.80
2018-09-26T15:02:43.937Z,20.50
2018-09-26T15:05:11.385Z,20.20
2018-09-26T15:07:38.962Z,20.20
2018-09-26T15:10:07.072Z,20.10
2018-09-26T15:12:34.478Z,20.10
2018-09-26T15:15:01.929Z,20.20
2018-09-26T15:17:29.362Z,20.20
2018-09-26T15:19:56.799Z,20.50
2018-09-26T15:22:24.229Z,20.60
2018-09-26T15:24:51.658Z,20.50
2018-09-26T15:27:19.098Z,20.20
2018-09-26T15:29:46.546Z,19.90
2018-09-26T15:32:14.187Z,19.90
2018-09-26T15:34:41.565Z,20.30
2018-09-26T15:37:09.005Z,20.70
2018-09-26T15:39:36.458Z,21.00
2018-09-26T15:42:03.917Z,21.00
2018-09-26T15:44:31.347Z,21.00
2018-09-26T15:46:58.769Z,21.10
2018-09-26T15:49:26.204Z,21.20
2018-09-26T15:51:53.670Z,21.30
2018-09-26T15:54:21.155Z,21.10
2018-09-26T15:56:48.597Z,21.00
2018-09-26T15:59:16.033Z,20.80
2018-09-26T16:01:43.493Z,20.40
2018-09-26T16:04:22.379Z,20.00
2018-09-26T16:06:49.693Z,19.90
2018-09-26T16:09:17.106Z,19.70
2018-09-26T16:11:44.510Z,19.70
2018-09-26T16:14:11.913Z,20.00
2018-09-26T16:16:39.302Z,19.90
2018-09-26T16:19:06.695Z,20.10
2018-09-26T16:21:34.093Z,20.10
2018-09-26T16:24:01.481Z,20.20
2018-09-26T16:26:28.962Z,20.50
2018-09-26T16:28:56.365Z,20.40
2018-09-26T16:31:23.790Z,20.40
2018-09-26T16:33:51.148Z,20.10
2018-09-26T16:36:18.611Z,19.90
2018-09-26T16:38:46.170Z,19.60
2018-09-26T16:41:13.604Z,19.20
2018-09-26T16:43:40.976Z,18.80
2018-09-26T16:46:08.395Z,18.40
2018-09-26T16:48:35.792Z,18.20
2018-09-26T16:51:03.198Z,17.90
2018-09-26T16:53:30.677Z,17.60
2018-09-26T16:55:58.400Z,17.30
2018-09-26T16:58:25.892Z,17.10
2018-09-26T17:00:53.209Z,16.90
2018-09-26T17:03:20.609Z,16.80
2018-09-26T17:05:48.015Z,16.70
2018-09-26T17:08:15.414Z,16.60
2018-09-26T17:10:42.812Z,16.50
2018-09-26T17:13:10.213Z,16.50
2018-09-26T17:15:37.622Z,16.50
2018-09-26T17:18:05.020Z,16.40
2018-09-26T17:20:32.435Z,16.30
2018-09-26T17:22:59.868Z,16.20
2018-09-26T17:25:27.285Z,16.10
2018-09-26T17:27:54.714Z,16.00
2018-09-26T17:30:22.158Z,15.90
2018-09-26T17:32:49.561Z,15.80
2018-09-26T17:35:16.959Z,15.60
2018-09-26T17:37:44.400Z,15.60
2018-09-26T17:40:12.162Z,15.50
2018-09-26T17:42:39.489Z,15.40
2018-09-26T17:45:07.697Z,15.30
2018-09-26T17:47:35.152Z,15.20
2018-09-26T17:50:02.575Z,15.20
2018-09-26T17:52:30.018Z,15.20
2018-09-26T17:54:57.470Z,15.10
2018-09-26T17:57:24.873Z,15.10
2018-09-26T17:59:52.289Z,15.00
2018-09-26T18:02:19.709Z,14.90
2018-09-26T18:04:47.114Z,14.90
2018-09-26T18:07:14.603Z,14.90
2018-09-26T18:09:42.001Z,14.90
2018-09-26T18:12:09.437Z,14.90
2018-09-26T18:14:36.906Z,14.90
2018-09-26T18:17:04.398Z,14.70
2018-09-26T18:19:31.885Z,14.70
2018-09-26T18:21:59.296Z,14.50
2018-09-26T18:24:26.865Z,14.40
2018-09-26T18:26:54.326Z,14.30
2018-09-26T18:29:21.725Z,14.20
2018-09-26T18:31:49.221Z,14.10
2018-09-26T18:34:16.637Z,14.00
2018-09-26T18:36:45.032Z,13.90
2018-09-26T18:39:12.432Z,13.80
2018-09-26T18:41:40.141Z,13.70
2018-09-26T18:44:07.529Z,13.60
2018-09-26T18:46:35.087Z,13.60
2018-09-26T18:49:02.553Z,13.50
2018-09-26T18:51:29.989Z,13.40
2018-09-26T18:53:57.402Z,13.30
2018-09-26T18:56:24.866Z,13.20
2018-09-26T18:58:52.300Z,13.20
2018-09-26T19:01:19.678Z,13.10
2018-09-26T19:03:47.124Z,13.10
2018-09-26T19:06:14.722Z,13.00
2018-09-26T19:08:42.161Z,13.00
2018-09-26T19:11:09.557Z,12.90
2018-09-26T19:13:36.977Z,12.80
2018-09-26T19:16:04.415Z,12.80
2018-09-26T19:18:31.838Z,12.70
2018-09-26T19:20:59.350Z,12.70
2018-09-26T19:23:26.754Z,12.60
2018-09-26T19:25:54.153Z,12.60
2018-09-26T19:28:21.567Z,12.50
2018-09-26T19:30:48.961Z,12.40
2018-09-26T19:33:16.371Z,12.40
2018-09-26T19:35:43.784Z,12.30
2018-09-26T19:38:11.178Z,12.20
2018-09-26T19:40:38.635Z,12.10
2018-09-26T19:43:06.032Z,12.10
2018-09-26T19:45:33.450Z,12.00
2018-09-26T19:48:00.866Z,11.90
2018-09-26T19:50:28.286Z,11.90
2018-09-26T19:52:55.699Z,11.90
2018-09-26T19:55:23.238Z,11.90
2018-09-26T19:57:50.878Z,11.80
2018-09-26T20:00:18.277Z,11.80
2018-09-26T20:02:45.678Z,11.70
2018-09-26T20:05:13.121Z,11.70
2018-09-26T20:07:40.534Z,11.70
2018-09-26T20:10:08.229Z,11.60
2018-09-26T20:12:35.621Z,11.60
2018-09-26T20:15:03.025Z,11.60
2018-09-26T20:17:30.415Z,11.60
2018-09-26T20:19:57.835Z,11.50
2018-09-26T20:22:25.250Z,11.50
2018-09-26T20:24:52.785Z,11.40
2018-09-26T20:27:20.367Z,11.30
2018-09-26T20:29:47.828Z,11.30
2018-09-26T20:32:15.016Z,11.30
2018-09-26T20:34:42.405Z,11.20
2018-09-26T20:37:09.871Z,11.20
2018-09-26T20:39:37.289Z,11.10
2018-09-26T20:42:04.759Z,11.10
2018-09-26T20:44:32.161Z,11.10
2018-09-26T20:46:59.577Z,11.00
2018-09-26T20:49:26.992Z,11.00
2018-09-26T20:51:54.520Z,11.00
2018-09-26T20:54:21.862Z,10.90
2018-09-26T20:56:49.337Z,10.90
2018-09-26T20:59:16.853Z,10.80
2018-09-26T21:01:44.494Z,10.80
2018-09-26T21:04:12.029Z,10.80
2018-09-26T21:06:39.474Z,10.70
2018-09-26T21:09:07.646Z,10.70
2018-09-26T21:11:35.081Z,10.70
2018-09-26T21:14:02.509Z,10.70
2018-09-26T21:16:29.942Z,10.70
2018-09-26T21:18:57.358Z,10.70
2018-09-26T21:21:25.054Z,10.70
2018-09-26T21:23:52.515Z,10.70
2018-09-26T21:26:19.977Z,10.60
2018-09-26T21:28:47.382Z,10.60
2018-09-26T21:31:14.848Z,10.60
2018-09-26T21:33:42.255Z,10.60
2018-09-26T21:36:09.664Z,10.60
2018-09-26T21:38:37.094Z,10.50
2018-09-26T21:41:04.481Z,10.40
2018-09-26T21:43:31.907Z,10.20
2018-09-26T21:45:59.325Z,10.20
2018-09-26T21:48:26.777Z,10.10
2018-09-26T21:50:54.206Z,10.00
2018-09-26T21:53:21.598Z,9.80
2018-09-26T21:55:49.014Z,9.80
2018-09-26T21:58:16.438Z,9.80
2018-09-26T22:00:49.413Z,9.80
2018-09-26T22:03:16.957Z,9.70
2018-09-26T22:05:44.385Z,9.70
2018-09-26T22:08:11.794Z,9.70
2018-09-26T22:10:39.177Z,9.70
2018-09-26T22:13:06.577Z,9.70
2018-09-26T22:15:33.961Z,9.70
2018-09-26T22:18:01.362Z,9.70
2018-09-26T22:20:28.773Z,9.70
2018-09-26T22:22:56.180Z,9.70
2018-09-26T22:25:23.582Z,9.70
2018-09-26T22:27:50.993Z,9.70
2018-09-26T22:30:18.396Z,9.70
2018-09-26T22:32:45.801Z,9.70
2018-09-26T22:35:13.204Z,9.60
2018-09-26T22:37:40.613Z,9.60
2018-09-26T22:40:07.986Z,9.50
2018-09-26T22:42:35.405Z,9.50
2018-09-26T22:45:02.806Z,9.40
2018-09-26T22:47:30.208Z,9.40
2018-09-26T22:49:57.623Z,9.30
2018-09-26T22:52:25.022Z,9.20
2018-09-26T22:54:52.406Z,9.20
2018-09-26T22:57:19.813Z,9.20
2018-09-26T22:59:47.222Z,9.20
2018-09-26T23:02:14.618Z,9.10
2018-09-26T23:04:42.049Z,9.00
2018-09-26T23:07:09.462Z,8.90
2018-09-26T23:09:37.872Z,8.90
2018-09-26T23:12:05.266Z,8.90
2018-09-26T23:14:32.663Z,8.90
2018-09-26T23:17:00.221Z,8.90
2018-09-26T23:19:27.609Z,8.80
2018-09-26T23:21:55.010Z,8.80
2018-09-26T23:24:22.405Z,8.80
2018-09-26T23:26:49.934Z,8.80
2018-09-26T23:29:17.325Z,8.70
2018-09-26T23:31:44.741Z,8.70
2018-09-26T23:34:12.141Z,8.60
2018-09-26T23:36:39.547Z,8.60
2018-09-26T23:39:07.645Z,8.50
2018-09-26T23:41:35.166Z,8.40
2018-09-26T23:44:02.567Z,8.50
2018-09-26T23:46:29.957Z,8.40
2018-09-26T23:48:57.377Z,8.50
2018-09-26T23:51:24.778Z,8.40
2018-09-26T23:53:52.170Z,8.40
2018-09-26T23:56:19.555Z,8.40
2018-09-26T23:58:46.946Z,8.40
